createdAt,value
2019-03-17T00:00:54.164Z,2.07
2019-03-17T00:03:21.175Z,2.13
2019-03-17T00:05:47.961Z,2.20
2019-03-17T00:08:14.920Z,2.37
2019-03-17T00:10:42.072Z,1.87
2019-03-17T00:13:08.944Z,2.20
2019-03-17T00:15:36.275Z,2.20
2019-03-17T00:18:06.291Z,2.50
2019-03-17T00:20:33.143Z,2.60
2019-03-17T00:22:59.969Z,2.37
2019-03-17T00:25:27.127Z,2.43
2019-03-17T00:27:54.019Z,2.20
2019-03-17T00:30:20.868Z,2.43
2019-03-17T00:32:47.753Z,2.13
2019-03-17T00:35:14.507Z,2.07
2019-03-17T00:37:41.490Z,2.30
2019-03-17T00:40:08.711Z,1.80
2019-03-17T00:42:35.619Z,2.30
2019-03-17T00:45:03.252Z,2.63
2019-03-17T00:47:30.163Z,2.73
2019-03-17T00:49:57.103Z,2.30
2019-03-17T00:52:24.086Z,1.90
2019-03-17T00:54:50.972Z,2.03
2019-03-17T00:57:17.701Z,1.80
2019-03-17T00:59:44.528Z,2.47
2019-03-17T01:02:11.810Z,1.70
2019-03-17T01:04:38.599Z,1.80
2019-03-17T01:07:05.613Z,2.10
2019-03-17T01:09:32.646Z,1.70
2019-03-17T01:11:59.992Z,2.00
2019-03-17T01:14:26.968Z,1.60
2019-03-17T01:16:54.397Z,1.87
2019-03-17T01:19:21.233Z,1.60
2019-03-17T01:21:48.039Z,6.63
2019-03-17T01:24:15.074Z,2.70
2019-03-17T01:26:42.083Z,2.27
2019-03-17T01:29:08.907Z,2.20
2019-03-17T01:31:35.949Z,2.17
2019-03-17T01:34:02.884Z,1.77
2019-03-17T01:36:29.873Z,1.63
2019-03-17T01:38:58.731Z,1.67
2019-03-17T01:41:25.574Z,2.10
2019-03-17T01:43:52.495Z,1.87
2019-03-17T01:46:19.246Z,2.00
2019-03-17T01:48:45.991Z,1.90
2019-03-17T01:51:12.889Z,2.10
2019-03-17T01:53:39.774Z,1.93
2019-03-17T01:56:06.567Z,1.97
2019-03-17T01:58:33.537Z,2.20
2019-03-17T02:01:00.545Z,2.83
2019-03-17T02:03:27.274Z,2.30
2019-03-17T02:05:54.160Z,2.40
2019-03-17T02:08:21.099Z,2.03
2019-03-17T02:10:47.855Z,2.27
2019-03-17T02:13:14.741Z,2.37
2019-03-17T02:15:41.747Z,1.80
2019-03-17T02:18:08.630Z,2.13
2019-03-17T02:20:35.386Z,2.00
2019-03-17T02:23:02.128Z,2.00
2019-03-17T02:25:28.967Z,2.00
2019-03-17T02:27:55.892Z,2.00
2019-03-17T02:30:22.963Z,2.07
2019-03-17T02:32:49.824Z,1.93
2019-03-17T02:35:16.799Z,2.10
2019-03-17T02:37:43.719Z,2.00
2019-03-17T02:40:10.740Z,1.70
2019-03-17T02:42:37.855Z,1.80
2019-03-17T02:45:05.976Z,1.90
2019-03-17T02:47:32.976Z,2.17
2019-03-17T02:49:59.711Z,1.87
2019-03-17T02:52:26.598Z,2.17
2019-03-17T02:54:53.355Z,2.40
2019-03-17T02:57:20.238Z,1.90
2019-03-17T02:59:47.206Z,2.20
2019-03-17T03:02:13.947Z,2.07
2019-03-17T03:04:40.789Z,1.97
2019-03-17T03:07:10.178Z,2.10
2019-03-17T03:09:37.130Z,1.90
2019-03-17T03:12:04.145Z,1.90
2019-03-17T03:14:31.010Z,1.80
2019-03-17T03:16:57.786Z,1.90
2019-03-17T03:19:24.867Z,2.03
2019-03-17T03:21:51.726Z,1.77
2019-03-17T03:24:18.472Z,1.80
2019-03-17T03:26:45.212Z,2.03
2019-03-17T03:29:12.000Z,2.10
2019-03-17T03:31:38.839Z,1.80
2019-03-17T03:34:05.949Z,1.80
2019-03-17T03:36:32.715Z,2.00
2019-03-17T03:38:59.737Z,2.10
2019-03-17T03:41:26.749Z,2.60
2019-03-17T03:43:53.792Z,1.77
2019-03-17T03:46:20.640Z,1.87
2019-03-17T03:48:47.621Z,2.00
2019-03-17T03:51:14.735Z,2.10
2019-03-17T03:53:41.651Z,2.37
2019-03-17T03:56:10.105Z,1.97
2019-03-17T03:58:37.343Z,1.90
2019-03-17T04:01:04.404Z,1.33
2019-03-17T04:03:31.407Z,1.50
2019-03-17T04:05:58.339Z,2.00
2019-03-17T04:08:27.209Z,2.17
2019-03-17T04:10:54.500Z,1.80
2019-03-17T04:13:21.691Z,1.67
2019-03-17T04:15:48.772Z,2.23
2019-03-17T04:18:15.796Z,1.77
2019-03-17T04:20:42.799Z,2.00
2019-03-17T04:23:09.808Z,1.80
2019-03-17T04:25:36.708Z,2.07
2019-03-17T04:28:03.597Z,1.80
2019-03-17T04:30:30.636Z,1.97
2019-03-17T04:32:57.532Z,2.07
2019-03-17T04:35:24.550Z,1.80
2019-03-17T04:37:51.393Z,2.10
2019-03-17T04:40:18.386Z,2.07
2019-03-17T04:42:45.256Z,2.03
2019-03-17T04:45:12.079Z,1.97
2019-03-17T04:47:38.817Z,2.00
2019-03-17T04:50:05.936Z,1.97
2019-03-17T04:52:32.947Z,2.00
2019-03-17T04:54:59.976Z,2.30
2019-03-17T04:57:26.743Z,2.03
2019-03-17T04:59:53.780Z,1.70
2019-03-17T05:02:20.747Z,1.80
2019-03-17T05:04:47.607Z,2.10
2019-03-17T05:07:14.440Z,2.13
2019-03-17T05:09:41.315Z,1.97
2019-03-17T05:12:08.239Z,1.77
2019-03-17T05:14:35.234Z,2.33
2019-03-17T05:17:02.111Z,1.90
2019-03-17T05:19:29.026Z,1.70
2019-03-17T05:21:56.040Z,2.00
2019-03-17T05:24:22.845Z,2.33
2019-03-17T05:26:49.623Z,1.90
2019-03-17T05:29:16.619Z,2.33
2019-03-17T05:31:43.581Z,2.03
2019-03-17T05:34:10.335Z,2.03
2019-03-17T05:36:37.095Z,2.30
2019-03-17T05:39:05.790Z,2.27
2019-03-17T05:41:32.588Z,2.50
2019-03-17T05:43:59.896Z,2.37
2019-03-17T05:46:26.669Z,2.20
2019-03-17T05:48:53.457Z,2.10
2019-03-17T05:51:20.801Z,2.50
2019-03-17T05:53:47.615Z,2.40
2019-03-17T05:56:14.403Z,2.07
2019-03-17T05:58:41.295Z,2.43
2019-03-17T06:01:08.318Z,2.30
2019-03-17T06:03:35.272Z,2.27
2019-03-17T06:06:02.173Z,2.33
2019-03-17T06:08:29.050Z,3.10
2019-03-17T06:10:55.959Z,2.20
2019-03-17T06:13:23.472Z,2.43
2019-03-17T06:15:50.274Z,2.60
2019-03-17T06:18:17.314Z,2.40
2019-03-17T06:20:44.565Z,2.37
2019-03-17T06:23:11.451Z,2.10
2019-03-17T06:25:38.227Z,2.23
2019-03-17T06:28:05.266Z,2.50
2019-03-17T06:30:32.184Z,2.20
2019-03-17T06:32:59.200Z,2.30
2019-03-17T06:35:26.291Z,2.70
2019-03-17T06:37:53.196Z,2.23
2019-03-17T06:40:19.959Z,2.40
2019-03-17T06:42:47.111Z,2.30
2019-03-17T06:45:14.042Z,2.87
2019-03-17T06:47:42.859Z,2.40
2019-03-17T06:50:10.345Z,2.60
2019-03-17T06:52:37.278Z,2.50
2019-03-17T06:55:04.938Z,2.53
2019-03-17T06:57:31.727Z,3.00
2019-03-17T06:59:58.599Z,2.93
2019-03-17T07:02:25.457Z,2.80
2019-03-17T07:04:54.006Z,2.90
2019-03-17T07:07:21.040Z,3.10
2019-03-17T07:09:47.970Z,2.40
2019-03-17T07:12:15.043Z,2.47
2019-03-17T07:14:41.973Z,2.23
2019-03-17T07:17:09.324Z,2.30
2019-03-17T07:19:36.334Z,2.30
2019-03-17T07:22:03.341Z,2.57
2019-03-17T07:24:30.381Z,2.73
2019-03-17T07:26:57.225Z,3.07
2019-03-17T07:29:24.233Z,3.20
2019-03-17T07:31:51.125Z,3.43
2019-03-17T07:34:17.897Z,3.83
2019-03-17T07:36:44.881Z,2.80
2019-03-17T07:39:12.521Z,3.13
2019-03-17T07:41:39.651Z,3.00
2019-03-17T07:44:06.459Z,3.50
2019-03-17T07:46:33.378Z,3.47
2019-03-17T07:49:00.352Z,3.17
2019-03-17T07:51:27.284Z,3.00
2019-03-17T07:53:54.831Z,2.87
2019-03-17T07:56:21.642Z,3.50
2019-03-17T07:58:48.490Z,3.47
2019-03-17T08:01:15.319Z,2.90
2019-03-17T08:03:44.493Z,3.30
2019-03-17T08:06:11.292Z,3.53
2019-03-17T08:08:38.156Z,3.30
2019-03-17T08:11:05.123Z,3.87
2019-03-17T08:13:31.960Z,4.60
2019-03-17T08:15:58.858Z,4.20
2019-03-17T08:18:25.655Z,4.63
2019-03-17T08:20:52.431Z,4.47
2019-03-17T08:23:19.427Z,4.90
2019-03-17T08:25:46.345Z,5.93
2019-03-17T08:28:13.266Z,5.90
2019-03-17T08:30:52.439Z,5.80
2019-03-17T08:33:09.287Z,5.93
2019-03-17T08:35:36.207Z,5.90
2019-03-17T08:38:03.169Z,6.20
2019-03-17T08:40:30.039Z,6.33
2019-03-17T08:42:56.785Z,6.03
2019-03-17T08:45:23.673Z,5.90
2019-03-17T08:47:57.877Z,5.83
2019-03-17T08:50:19.287Z,6.13
2019-03-17T08:52:46.439Z,4.73
2019-03-17T08:55:13.548Z,5.37
2019-03-17T08:57:40.617Z,4.93
2019-03-17T09:00:08.978Z,5.33
2019-03-17T09:02:35.839Z,4.80
2019-03-17T09:05:03.143Z,4.87
2019-03-17T09:07:30.032Z,4.67
2019-03-17T09:09:57.090Z,4.87
2019-03-17T09:12:23.808Z,4.73
2019-03-17T09:14:50.810Z,4.53
2019-03-17T09:17:17.631Z,4.10
2019-03-17T09:19:44.545Z,4.03
2019-03-17T09:22:11.426Z,4.73
2019-03-17T09:24:38.216Z,4.60
2019-03-17T09:27:05.314Z,3.97
2019-03-17T09:29:32.107Z,6.17
2019-03-17T09:31:58.878Z,4.93
2019-03-17T09:34:25.891Z,4.40
2019-03-17T09:36:52.772Z,4.50
2019-03-17T09:39:19.535Z,5.10
2019-03-17T09:41:46.483Z,5.00
2019-03-17T09:44:13.299Z,5.50
2019-03-17T09:46:40.220Z,6.07
2019-03-17T09:49:07.223Z,7.37
2019-03-17T09:51:34.112Z,5.70
2019-03-17T09:54:01.063Z,5.63
2019-03-17T09:56:28.447Z,5.43
2019-03-17T09:58:55.534Z,5.93
2019-03-17T10:01:23.363Z,5.37
2019-03-17T10:03:50.347Z,4.93
2019-03-17T10:06:17.239Z,5.73
2019-03-17T10:08:44.137Z,5.30
2019-03-17T10:11:11.147Z,6.70
2019-03-17T10:13:38.024Z,5.00
2019-03-17T10:16:04.898Z,5.13
2019-03-17T10:18:31.832Z,5.10
2019-03-17T10:20:58.927Z,5.87
2019-03-17T10:23:25.696Z,5.47
2019-03-17T10:25:52.971Z,5.03
2019-03-17T10:28:19.823Z,5.60
2019-03-17T10:30:46.781Z,6.40
2019-03-17T10:33:13.677Z,5.50
2019-03-17T10:35:40.455Z,4.60
2019-03-17T10:38:07.332Z,5.80
2019-03-17T10:40:34.296Z,5.63
2019-03-17T10:43:01.217Z,4.40
2019-03-17T10:45:28.247Z,4.47
2019-03-17T10:47:55.239Z,5.03
2019-03-17T10:50:22.232Z,4.50
2019-03-17T10:52:49.088Z,4.83
2019-03-17T10:55:16.100Z,4.53
2019-03-17T10:57:43.048Z,3.73
2019-03-17T11:00:11.835Z,4.37
2019-03-17T11:02:38.781Z,3.87
2019-03-17T11:05:06.088Z,3.80
2019-03-17T11:07:32.963Z,3.70
2019-03-17T11:09:59.960Z,3.80
2019-03-17T11:12:27.087Z,4.40
2019-03-17T11:14:53.978Z,4.07
2019-03-17T11:17:20.843Z,2.83
2019-03-17T11:19:47.583Z,2.80
2019-03-17T11:22:14.352Z,2.90
2019-03-17T11:24:41.298Z,0.77
2019-03-17T11:27:08.429Z,0.60
2019-03-17T11:29:35.230Z,0.50
2019-03-17T11:32:02.256Z,0.40
2019-03-17T11:34:29.025Z,0.30
2019-03-17T11:36:55.987Z,1.87
2019-03-17T11:39:22.811Z,1.47
2019-03-17T11:41:49.587Z,1.90
2019-03-17T11:44:17.032Z,1.00
2019-03-17T11:46:44.000Z,0.80
2019-03-17T11:49:11.035Z,0.80
2019-03-17T11:51:37.907Z,0.40
2019-03-17T11:54:04.761Z,0.60
2019-03-17T11:56:31.840Z,0.80
2019-03-17T11:58:58.666Z,0.90
2019-03-17T12:01:25.731Z,0.60
2019-03-17T12:03:52.786Z,0.90
2019-03-17T12:06:19.607Z,0.80
2019-03-17T12:08:46.611Z,0.73
2019-03-17T12:11:13.483Z,0.50
2019-03-17T12:13:40.401Z,0.30
2019-03-17T12:16:07.362Z,0.40
2019-03-17T12:18:34.853Z,0.50
2019-03-17T12:21:02.678Z,0.50
2019-03-17T12:23:29.589Z,0.70
2019-03-17T12:25:56.921Z,0.77
2019-03-17T12:28:24.042Z,1.10
2019-03-17T12:30:52.815Z,0.43
2019-03-17T12:33:19.721Z,0.60
2019-03-17T12:35:46.604Z,0.40
2019-03-17T12:38:13.518Z,0.33
2019-03-17T12:40:40.284Z,0.43
2019-03-17T12:43:09.638Z,0.30
2019-03-17T12:45:36.663Z,0.30
2019-03-17T12:48:03.793Z,0.60
2019-03-17T12:50:30.638Z,0.43
2019-03-17T12:52:57.500Z,1.10
2019-03-17T12:55:24.436Z,0.47
2019-03-17T12:57:51.255Z,0.60
2019-03-17T13:00:18.223Z,0.60
2019-03-17T13:02:45.105Z,0.40
2019-03-17T13:05:13.245Z,0.70
2019-03-17T13:07:42.068Z,1.50
2019-03-17T13:10:16.135Z,1.00
2019-03-17T13:12:40.602Z,0.90
2019-03-17T13:15:08.478Z,1.03
2019-03-17T13:17:35.822Z,1.10
2019-03-17T13:20:05.110Z,0.93
2019-03-17T13:22:32.623Z,1.47
2019-03-17T13:25:01.882Z,0.70
2019-03-17T13:27:28.977Z,0.97
2019-03-17T13:29:55.900Z,1.00
2019-03-17T13:32:23.293Z,0.77
2019-03-17T13:34:51.046Z,0.80
2019-03-17T13:37:19.150Z,0.80
2019-03-17T13:39:47.659Z,0.70
2019-03-17T13:42:14.865Z,0.93
2019-03-17T13:44:43.735Z,0.87
2019-03-17T13:47:11.165Z,1.30
2019-03-17T13:49:38.584Z,1.10
2019-03-17T13:52:05.894Z,1.00
2019-03-17T13:54:33.435Z,0.57
2019-03-17T13:57:00.827Z,0.83
2019-03-17T13:59:27.782Z,0.70
2019-03-17T14:01:54.842Z,0.70
2019-03-17T14:04:21.927Z,0.80
2019-03-17T14:06:48.723Z,1.10
2019-03-17T14:09:15.759Z,0.70
2019-03-17T14:11:42.531Z,0.73
2019-03-17T14:14:09.457Z,1.00
2019-03-17T14:16:36.404Z,1.00
2019-03-17T14:19:04.860Z,0.70
2019-03-17T14:21:31.827Z,0.80
2019-03-17T14:23:58.753Z,0.80
2019-03-17T14:26:25.931Z,0.70
2019-03-17T14:28:52.827Z,0.90
2019-03-17T14:31:19.744Z,1.00
2019-03-17T14:33:46.676Z,1.07
2019-03-17T14:36:13.582Z,0.50
2019-03-17T14:38:40.503Z,0.70
2019-03-17T14:41:07.334Z,0.93
2019-03-17T14:43:34.452Z,0.67
2019-03-17T14:46:01.308Z,0.80
2019-03-17T14:48:28.283Z,0.70
2019-03-17T14:50:55.063Z,1.20
2019-03-17T14:53:22.085Z,0.90
2019-03-17T14:55:49.695Z,0.77
2019-03-17T14:58:16.675Z,0.57
2019-03-17T15:00:43.444Z,1.23
2019-03-17T15:03:10.315Z,1.03
2019-03-17T15:05:37.191Z,1.70
2019-03-17T15:08:04.199Z,0.80
2019-03-17T15:10:31.071Z,1.23
2019-03-17T15:12:58.041Z,2.57
2019-03-17T15:15:24.869Z,0.90
2019-03-17T15:17:51.643Z,0.60
2019-03-17T15:20:18.659Z,0.70
2019-03-17T15:22:45.635Z,1.13
2019-03-17T15:25:14.141Z,1.13
2019-03-17T15:27:41.950Z,1.07
2019-03-17T15:30:12.363Z,0.90
2019-03-17T15:32:39.169Z,1.27
2019-03-17T15:35:08.192Z,0.80
2019-03-17T15:37:35.081Z,0.87
2019-03-17T15:40:02.385Z,0.87
2019-03-17T15:42:29.256Z,0.60
2019-03-17T15:44:56.104Z,1.07
2019-03-17T15:47:22.880Z,0.80
2019-03-17T15:49:49.891Z,0.70
2019-03-17T15:52:16.746Z,1.00
2019-03-17T15:54:43.601Z,0.73
2019-03-17T15:57:10.791Z,1.10
2019-03-17T15:59:37.591Z,1.20
2019-03-17T16:02:04.786Z,1.13
2019-03-17T16:04:31.661Z,1.77
2019-03-17T16:06:58.470Z,1.40
2019-03-17T16:09:25.231Z,1.17
2019-03-17T16:11:52.370Z,0.80
2019-03-17T16:14:19.269Z,1.10
2019-03-17T16:16:46.099Z,1.00
2019-03-17T16:19:13.135Z,0.93
2019-03-17T16:21:39.932Z,1.10
2019-03-17T16:24:06.671Z,0.90
2019-03-17T16:26:33.541Z,1.10
2019-03-17T16:29:00.479Z,0.80
2019-03-17T16:31:27.431Z,0.93
2019-03-17T16:33:54.316Z,1.17
2019-03-17T16:36:21.151Z,0.80
2019-03-17T16:38:48.153Z,0.90
2019-03-17T16:41:14.998Z,0.87
2019-03-17T16:43:41.799Z,1.33
2019-03-17T16:46:08.540Z,1.10
2019-03-17T16:48:35.594Z,0.80
2019-03-17T16:51:02.653Z,1.13
2019-03-17T16:53:29.563Z,0.80
2019-03-17T16:55:56.566Z,0.83
2019-03-17T16:58:23.456Z,1.20
2019-03-17T17:00:51.652Z,0.87
2019-03-17T17:03:18.566Z,0.90
2019-03-17T17:05:45.559Z,1.03
2019-03-17T17:08:12.446Z,0.70
2019-03-17T17:10:39.269Z,1.30
2019-03-17T17:13:06.208Z,0.80
2019-03-17T17:15:33.244Z,1.10
2019-03-17T17:18:00.347Z,0.90
2019-03-17T17:20:27.644Z,0.63
2019-03-17T17:22:54.589Z,0.70
2019-03-17T17:25:21.621Z,1.87
2019-03-17T17:27:48.594Z,1.63
2019-03-17T17:30:15.712Z,1.87
2019-03-17T17:32:42.940Z,1.40
2019-03-17T17:35:10.129Z,0.80
2019-03-17T17:37:38.683Z,0.50
2019-03-17T17:40:06.835Z,1.00
2019-03-17T17:42:33.887Z,0.60
2019-03-17T17:45:00.645Z,1.00
2019-03-17T17:47:27.535Z,1.00
2019-03-17T17:49:54.412Z,0.70
2019-03-17T17:52:21.283Z,1.20
2019-03-17T17:54:48.147Z,1.00
2019-03-17T17:57:14.928Z,0.77
2019-03-17T17:59:41.751Z,1.43
2019-03-17T18:02:08.769Z,1.07
2019-03-17T18:04:35.561Z,0.80
2019-03-17T18:07:02.724Z,1.10
2019-03-17T18:09:29.842Z,0.83
2019-03-17T18:11:56.588Z,0.60
2019-03-17T18:14:23.347Z,0.80
2019-03-17T18:16:50.127Z,0.80
2019-03-17T18:19:16.959Z,1.00
2019-03-17T18:21:43.715Z,0.80
2019-03-17T18:24:10.489Z,0.60
2019-03-17T18:26:37.375Z,1.30
2019-03-17T18:29:04.257Z,1.27
2019-03-17T18:31:31.128Z,0.90
2019-03-17T18:33:58.142Z,1.03
2019-03-17T18:36:25.072Z,1.80
2019-03-17T18:38:51.953Z,1.30
2019-03-17T18:41:18.722Z,1.83
2019-03-17T18:43:45.623Z,1.03
2019-03-17T18:46:12.493Z,1.30
2019-03-17T18:48:39.383Z,1.07
2019-03-17T18:51:06.662Z,1.07
2019-03-17T18:53:33.644Z,1.40
2019-03-17T18:56:00.511Z,2.00
2019-03-17T18:58:27.399Z,1.50
2019-03-17T19:00:54.307Z,1.27
2019-03-17T19:03:21.211Z,1.00
2019-03-17T19:05:47.954Z,0.93
2019-03-17T19:08:14.707Z,1.20
2019-03-17T19:10:43.230Z,1.37
2019-03-17T19:13:10.287Z,1.43
2019-03-17T19:15:37.275Z,1.83
2019-03-17T19:18:04.392Z,2.23
2019-03-17T19:20:31.296Z,1.93
2019-03-17T19:22:58.619Z,1.40
2019-03-17T19:25:25.686Z,1.70
2019-03-17T19:27:52.535Z,1.50
2019-03-17T19:30:19.656Z,1.60
2019-03-17T19:32:46.928Z,2.63
2019-03-17T19:35:14.232Z,2.30
2019-03-17T19:37:41.323Z,1.40
2019-03-17T19:40:09.652Z,1.53
2019-03-17T19:42:36.830Z,1.20
2019-03-17T19:45:04.811Z,1.00
2019-03-17T19:47:31.744Z,1.00
2019-03-17T19:49:58.924Z,0.77
2019-03-17T19:52:25.671Z,0.87
2019-03-17T19:54:52.499Z,1.30
2019-03-17T19:57:19.472Z,1.40
2019-03-17T19:59:46.359Z,0.90
2019-03-17T20:02:13.242Z,1.30
2019-03-17T20:04:42.257Z,0.50
2019-03-17T20:07:09.391Z,0.60
2019-03-17T20:09:36.316Z,0.60
2019-03-17T20:12:03.517Z,0.60
2019-03-17T20:14:30.551Z,0.50
2019-03-17T20:16:57.469Z,0.60
2019-03-17T20:19:24.611Z,0.60
2019-03-17T20:21:51.566Z,0.50
2019-03-17T20:24:18.630Z,0.70
2019-03-17T20:26:45.549Z,0.63
2019-03-17T20:29:12.462Z,0.77
2019-03-17T20:31:39.722Z,0.50
2019-03-17T20:34:06.786Z,0.60
2019-03-17T20:36:33.851Z,0.50
2019-03-17T20:39:02.075Z,0.50
2019-03-17T20:41:28.984Z,0.50
2019-03-17T20:43:55.859Z,0.50
2019-03-17T20:46:22.732Z,0.40
2019-03-17T20:48:49.815Z,0.50
2019-03-17T20:51:16.815Z,0.70
2019-03-17T20:53:43.643Z,0.80
2019-03-17T20:56:10.395Z,0.50
2019-03-17T20:58:37.128Z,0.67
2019-03-17T21:01:03.965Z,0.60
2019-03-17T21:03:30.923Z,0.77
2019-03-17T21:05:57.728Z,0.70
2019-03-17T21:08:24.492Z,0.80
2019-03-17T21:10:51.351Z,0.70
2019-03-17T21:13:18.084Z,0.50
2019-03-17T21:15:44.947Z,0.50
2019-03-17T21:18:11.955Z,0.60
2019-03-17T21:20:38.836Z,0.57
2019-03-17T21:23:06.004Z,0.37
2019-03-17T21:25:32.923Z,0.80
2019-03-17T21:28:00.503Z,1.60
2019-03-17T21:30:27.932Z,1.33
2019-03-17T21:32:55.108Z,0.87
2019-03-17T21:35:22.288Z,1.10
2019-03-17T21:37:49.302Z,0.60
2019-03-17T21:40:16.445Z,1.03
2019-03-17T21:42:46.324Z,0.90
2019-03-17T21:45:13.700Z,0.70
2019-03-17T21:47:40.815Z,0.70
2019-03-17T21:50:09.815Z,0.60
2019-03-17T21:52:36.927Z,0.70
2019-03-17T21:55:04.175Z,0.70
2019-03-17T21:57:33.509Z,0.50
2019-03-17T22:00:04.072Z,0.73
2019-03-17T22:02:31.275Z,0.67
2019-03-17T22:04:58.114Z,1.07
2019-03-17T22:07:25.442Z,0.67
2019-03-17T22:09:52.436Z,0.73
2019-03-17T22:12:22.434Z,0.90
2019-03-17T22:14:53.665Z,0.93
2019-03-17T22:17:21.078Z,0.80
2019-03-17T22:19:49.903Z,0.87
2019-03-17T22:22:17.164Z,0.63
2019-03-17T22:24:47.429Z,0.67
2019-03-17T22:27:14.332Z,0.63
2019-03-17T22:29:42.288Z,0.60
2019-03-17T22:32:21.179Z,0.50
2019-03-17T22:34:47.915Z,0.60
2019-03-17T22:37:14.699Z,0.70
2019-03-17T22:39:41.579Z,0.80
2019-03-17T22:42:08.454Z,0.80
2019-03-17T22:44:35.271Z,0.60
2019-03-17T22:47:02.084Z,0.50
2019-03-17T22:49:28.851Z,0.60
2019-03-17T22:51:55.643Z,0.70
2019-03-17T22:54:22.406Z,0.97
2019-03-17T22:56:49.193Z,0.77
2019-03-17T22:59:15.951Z,1.00
2019-03-17T23:01:43.119Z,1.07
2019-03-17T23:04:10.011Z,0.83
2019-03-17T23:06:36.885Z,0.73
2019-03-17T23:09:05.895Z,0.70
2019-03-17T23:11:32.773Z,0.80
2019-03-17T23:13:59.502Z,0.80
2019-03-17T23:16:26.404Z,0.87
2019-03-17T23:18:53.259Z,0.67
2019-03-17T23:21:20.155Z,0.93
2019-03-17T23:23:47.028Z,0.70
2019-03-17T23:26:13.931Z,0.53
2019-03-17T23:28:40.743Z,0.80
2019-03-17T23:31:07.643Z,1.17
2019-03-17T23:33:34.354Z,0.77
2019-03-17T23:36:01.269Z,0.97
2019-03-17T23:38:28.111Z,0.67
2019-03-17T23:40:55.097Z,0.90
2019-03-17T23:43:21.967Z,0.70
2019-03-17T23:45:48.830Z,0.90
2019-03-17T23:48:15.588Z,0.87
2019-03-17T23:50:42.493Z,1.03
2019-03-17T23:53:09.528Z,1.20
2019-03-17T23:55:36.429Z,0.83
2019-03-17T23:58:03.199Z,1.27
